createdAt,value
2018-08-28T00:01:34.826Z,4.40
2018-08-28T00:04:04.476Z,4.57
2018-08-28T00:06:34.084Z,4.87
2018-08-28T00:09:04.271Z,4.27
2018-08-28T00:11:34.160Z,4.10
2018-08-28T00:14:03.996Z,4.93
2018-08-28T00:16:33.532Z,4.47
2018-08-28T00:19:03.085Z,4.10
2018-08-28T00:21:32.609Z,4.90
2018-08-28T00:24:02.193Z,4.73
2018-08-28T00:26:31.796Z,4.00
2018-08-28T00:29:01.382Z,4.47
2018-08-28T00:31:30.936Z,4.37
2018-08-28T00:34:00.453Z,3.97
2018-08-28T00:36:30.117Z,4.37
2018-08-28T00:38:59.730Z,3.87
2018-08-28T00:41:29.239Z,4.40
2018-08-28T00:43:58.926Z,4.40
2018-08-28T00:46:28.581Z,4.03
2018-08-28T00:48:58.131Z,4.30
2018-08-28T00:51:28.112Z,4.20
2018-08-28T00:53:58.022Z,4.07
2018-08-28T00:56:37.685Z,3.90
2018-08-28T00:59:07.175Z,5.00
2018-08-28T01:01:36.735Z,4.43
2018-08-28T01:04:06.577Z,4.47
2018-08-28T01:06:36.567Z,4.17
2018-08-28T01:09:07.815Z,3.87
2018-08-28T01:11:37.409Z,3.93
2018-08-28T01:14:06.937Z,4.30
2018-08-28T01:16:36.491Z,4.57
2018-08-28T01:19:06.675Z,3.37
2018-08-28T01:21:36.599Z,3.83
2018-08-28T01:24:07.060Z,3.90
2018-08-28T01:26:36.985Z,4.23
2018-08-28T01:32:04.427Z,4.17
2018-08-28T01:34:33.977Z,3.50
2018-08-28T01:37:03.500Z,4.30
2018-08-28T01:39:33.363Z,3.93
2018-08-28T01:42:02.882Z,4.30
2018-08-28T01:44:32.536Z,3.47
2018-08-28T01:47:02.046Z,4.30
2018-08-28T01:49:31.591Z,3.50
2018-08-28T01:52:01.304Z,3.90
2018-08-28T01:54:30.809Z,4.30
2018-08-28T01:57:00.689Z,4.30
2018-08-28T01:59:30.277Z,4.27
2018-08-28T02:01:59.811Z,4.10
2018-08-28T02:04:29.698Z,3.90
2018-08-28T02:06:59.275Z,3.73
2018-08-28T02:09:28.812Z,3.70
2018-08-28T02:11:58.360Z,4.80
2018-08-28T02:14:27.887Z,3.97
2018-08-28T02:16:57.453Z,4.93
2018-08-28T02:19:27.048Z,4.47
2018-08-28T02:21:56.606Z,5.50
2018-08-28T02:24:26.122Z,3.97
2018-08-28T02:26:55.712Z,4.63
2018-08-28T02:29:25.600Z,4.57
2018-08-28T02:31:55.138Z,4.73
2018-08-28T02:34:24.807Z,4.57
2018-08-28T02:36:54.705Z,4.73
2018-08-28T02:39:24.349Z,4.43
2018-08-28T02:41:53.908Z,4.47
2018-08-28T02:44:23.470Z,5.37
2018-08-28T02:46:53.040Z,4.33
2018-08-28T02:49:22.638Z,4.93
2018-08-28T02:51:52.239Z,3.97
2018-08-28T02:54:21.763Z,5.53
2018-08-28T02:56:51.322Z,5.53
2018-08-28T02:59:21.098Z,4.83
2018-08-28T03:01:50.695Z,4.90
2018-08-28T03:04:20.215Z,5.10
2018-08-28T03:06:49.862Z,4.37
2018-08-28T03:09:19.418Z,5.30
2018-08-28T03:11:48.996Z,5.30
2018-08-28T03:14:18.549Z,4.63
2018-08-28T03:16:48.109Z,4.00
2018-08-28T03:19:18.002Z,6.23
2018-08-28T03:21:47.620Z,4.97
2018-08-28T03:24:17.171Z,5.40
2018-08-28T03:26:46.722Z,5.60
2018-08-28T03:29:17.426Z,4.17
2018-08-28T03:31:47.142Z,4.87
2018-08-28T03:34:16.852Z,4.93
2018-08-28T03:36:46.375Z,4.70
2018-08-28T03:40:19.533Z,5.73
2018-08-28T03:42:49.057Z,5.90
2018-08-28T03:45:18.645Z,5.57
2018-08-28T03:47:48.205Z,5.40
2018-08-28T03:50:17.879Z,5.57
2018-08-28T03:52:47.483Z,5.77
2018-08-28T03:55:17.183Z,5.60
2018-08-28T03:57:46.941Z,5.83
2018-08-28T04:00:16.473Z,5.43
2018-08-28T04:02:46.053Z,4.77
2018-08-28T04:05:16.487Z,5.70
2018-08-28T04:07:46.061Z,4.80
2018-08-28T04:10:15.596Z,5.47
2018-08-28T04:12:45.105Z,5.70
2018-08-28T04:15:14.637Z,5.10
2018-08-28T04:17:49.281Z,5.00
2018-08-28T04:20:20.418Z,5.53
2018-08-28T04:22:49.947Z,5.37
2018-08-28T04:25:19.792Z,5.93
2018-08-28T04:27:49.388Z,5.27
2018-08-28T04:30:19.312Z,4.77
2018-08-28T04:32:48.987Z,4.33
2018-08-28T04:35:18.563Z,4.77
2018-08-28T04:37:48.130Z,6.10
2018-08-28T04:40:17.675Z,4.67
2018-08-28T04:42:49.553Z,5.03
2018-08-28T04:45:19.335Z,5.17
2018-08-28T04:47:48.920Z,5.43
2018-08-28T04:50:18.487Z,5.30
2018-08-28T04:52:48.094Z,4.83
2018-08-28T04:55:17.643Z,5.43
2018-08-28T04:57:47.187Z,5.40
2018-08-28T05:00:16.704Z,5.00
2018-08-28T05:02:46.242Z,5.00
2018-08-28T05:05:17.983Z,5.37
2018-08-28T05:07:47.676Z,5.13
2018-08-28T05:10:17.204Z,5.23
2018-08-28T05:12:46.776Z,5.30
2018-08-28T05:15:16.404Z,5.47
2018-08-28T05:17:45.994Z,5.40
2018-08-28T05:20:15.598Z,5.20
2018-08-28T05:22:46.528Z,5.83
2018-08-28T05:25:16.902Z,5.93
2018-08-28T05:27:46.471Z,5.63
2018-08-28T05:30:16.044Z,4.77
2018-08-28T05:32:50.601Z,6.37
2018-08-28T05:35:20.276Z,6.10
2018-08-28T05:37:49.846Z,6.73
2018-08-28T05:40:19.591Z,5.07
2018-08-28T05:42:49.200Z,6.13
2018-08-28T05:45:18.862Z,5.70
2018-08-28T05:47:48.420Z,6.00
2018-08-28T05:50:17.935Z,5.47
2018-08-28T05:52:47.529Z,4.57
2018-08-28T05:55:17.088Z,5.90
2018-08-28T05:57:48.724Z,5.30
2018-08-28T06:00:18.334Z,4.37
2018-08-28T06:02:47.871Z,4.97
2018-08-28T06:05:19.247Z,5.53
2018-08-28T06:07:48.932Z,5.60
2018-08-28T06:10:18.874Z,5.53
2018-08-28T06:12:55.943Z,5.93
2018-08-28T06:15:31.191Z,5.07
2018-08-28T06:18:06.911Z,5.17
2018-08-28T06:23:41.191Z,5.20
2018-08-28T06:28:55.985Z,5.03
2018-08-28T06:31:47.677Z,5.20
2018-08-28T06:34:25.238Z,5.37
2018-08-28T06:37:02.932Z,5.30
2018-08-28T06:39:44.491Z,5.30
2018-08-28T06:42:28.669Z,5.60
2018-08-28T06:45:17.662Z,5.67
2018-08-28T06:47:57.072Z,4.93
2018-08-28T06:50:37.362Z,5.63
2018-08-28T06:53:13.831Z,7.07
2018-08-28T06:58:41.146Z,5.97
2018-08-28T07:01:11.065Z,5.50
2018-08-28T07:03:46.452Z,6.10
2018-08-28T07:06:16.188Z,5.40
2018-08-28T07:08:59.494Z,5.43
2018-08-28T07:11:29.720Z,5.10
2018-08-28T07:14:10.147Z,6.37
2018-08-28T07:16:42.306Z,5.20
2018-08-28T07:19:12.095Z,5.80
2018-08-28T07:21:42.245Z,5.80
2018-08-28T07:24:11.859Z,6.47
2018-08-28T07:26:41.484Z,5.20
2018-08-28T07:29:13.898Z,5.77
2018-08-28T07:31:49.357Z,6.00
2018-08-28T07:34:20.076Z,6.53
2018-08-28T07:36:53.473Z,6.27
2018-08-28T07:39:23.218Z,5.53
2018-08-28T07:41:57.189Z,6.73
2018-08-28T07:44:27.959Z,5.47
2018-08-28T07:46:57.549Z,6.33
2018-08-28T07:49:27.378Z,5.93
2018-08-28T07:51:56.986Z,5.87
2018-08-28T07:54:26.524Z,6.37
2018-08-28T07:56:56.181Z,5.43
2018-08-28T07:59:25.802Z,6.60
2018-08-28T08:01:55.350Z,6.83
2018-08-28T08:04:27.600Z,7.60
2018-08-28T08:06:57.440Z,6.57
2018-08-28T08:09:31.807Z,6.97
2018-08-28T08:12:01.374Z,5.90
2018-08-28T08:14:31.040Z,5.50
2018-08-28T08:17:00.608Z,6.27
2018-08-28T08:19:32.689Z,4.77
2018-08-28T08:22:02.229Z,6.17
2018-08-28T08:24:32.205Z,5.77
2018-08-28T08:27:02.341Z,4.83
2018-08-28T08:29:31.945Z,5.17
2018-08-28T08:32:01.955Z,6.33
2018-08-28T08:34:31.550Z,4.87
2018-08-28T08:37:01.336Z,5.43
2018-08-28T08:39:31.352Z,5.50
2018-08-28T08:42:00.902Z,4.77
2018-08-28T08:44:30.749Z,4.53
2018-08-28T08:47:00.298Z,5.13
2018-08-28T08:49:29.843Z,4.13
2018-08-28T08:51:59.703Z,4.90
2018-08-28T08:54:29.258Z,4.63
2018-08-28T08:56:58.785Z,4.73
2018-08-28T08:59:28.373Z,4.53
2018-08-28T09:01:57.925Z,4.20
2018-08-28T09:04:28.376Z,4.23
2018-08-28T09:06:58.053Z,4.23
2018-08-28T09:09:27.856Z,3.83
2018-08-28T09:11:57.473Z,3.87
2018-08-28T09:14:27.241Z,4.93
2018-08-28T09:16:56.791Z,4.27
2018-08-28T09:19:26.355Z,5.03
2018-08-28T09:21:56.054Z,4.87
2018-08-28T09:24:26.555Z,3.83
2018-08-28T09:26:56.212Z,3.83
2018-08-28T09:29:25.806Z,5.27
2018-08-28T09:31:55.346Z,4.13
2018-08-28T09:34:24.989Z,3.60
2018-08-28T09:36:54.544Z,3.70
2018-08-28T09:39:24.096Z,3.67
2018-08-28T09:41:53.588Z,4.47
2018-08-28T09:44:23.130Z,4.10
2018-08-28T09:46:52.686Z,4.23
2018-08-28T09:49:22.267Z,5.10
2018-08-28T09:51:51.794Z,3.73
2018-08-28T09:54:21.387Z,4.27
2018-08-28T09:56:50.959Z,4.17
2018-08-28T09:59:20.457Z,3.90
2018-08-28T10:01:55.176Z,3.87
2018-08-28T10:04:24.795Z,4.03
2018-08-28T10:06:54.296Z,4.00
2018-08-28T10:09:23.890Z,3.97
2018-08-28T10:11:53.382Z,4.00
2018-08-28T10:14:22.908Z,3.83
2018-08-28T10:16:52.502Z,3.90
2018-08-28T10:19:22.081Z,3.57
2018-08-28T10:21:55.672Z,3.70
2018-08-28T10:24:25.180Z,4.13
2018-08-28T10:26:54.693Z,3.97
2018-08-28T10:29:24.196Z,4.13
2018-08-28T10:31:53.732Z,3.90
2018-08-28T10:34:23.316Z,4.23
2018-08-28T10:36:52.989Z,4.17
2018-08-28T10:39:22.546Z,3.67
2018-08-28T10:41:52.072Z,3.60
2018-08-28T10:44:21.713Z,3.50
2018-08-28T10:46:51.525Z,4.00
2018-08-28T10:49:22.119Z,3.77
2018-08-28T10:51:51.678Z,4.57
2018-08-28T10:54:21.200Z,4.27
2018-08-28T10:56:54.178Z,4.60
2018-08-28T10:59:23.856Z,3.30
2018-08-28T11:01:53.680Z,4.30
2018-08-28T11:04:23.331Z,3.80
2018-08-28T11:06:53.088Z,4.63
2018-08-28T11:09:22.781Z,4.30
2018-08-28T11:11:52.332Z,4.23
2018-08-28T11:14:21.846Z,4.13
2018-08-28T11:16:51.355Z,4.23
2018-08-28T11:19:21.052Z,3.67
2018-08-28T11:21:50.571Z,3.87
2018-08-28T11:24:20.152Z,3.73
2018-08-28T11:26:49.798Z,4.50
2018-08-28T11:29:20.012Z,3.80
2018-08-28T11:31:49.581Z,4.70
2018-08-28T11:34:22.514Z,4.90
2018-08-28T11:36:53.110Z,4.13
2018-08-28T11:39:22.671Z,4.43
2018-08-28T11:41:52.840Z,4.17
2018-08-28T11:44:23.961Z,4.53
2018-08-28T11:46:53.589Z,4.67
2018-08-28T11:49:23.978Z,3.53
2018-08-28T11:51:54.166Z,4.47
2018-08-28T11:54:25.651Z,3.93
2018-08-28T11:56:55.400Z,4.93
2018-08-28T11:59:25.100Z,3.70
2018-08-28T12:01:54.810Z,4.37
2018-08-28T12:04:24.807Z,4.40
2018-08-28T12:06:54.691Z,4.90
2018-08-28T12:09:26.280Z,4.10
2018-08-28T12:11:55.806Z,4.43
2018-08-28T12:14:26.275Z,4.60
2018-08-28T12:16:55.896Z,4.37
2018-08-28T12:22:31.646Z,4.77
2018-08-28T12:25:01.741Z,5.00
2018-08-28T12:27:31.326Z,4.80
2018-08-28T12:30:01.290Z,4.57
2018-08-28T12:32:31.104Z,3.57
2018-08-28T12:35:00.773Z,4.57
2018-08-28T12:37:30.762Z,4.10
2018-08-28T12:40:00.732Z,4.50
2018-08-28T12:42:31.163Z,3.97
2018-08-28T12:45:01.564Z,4.50
2018-08-28T12:47:35.765Z,4.13
2018-08-28T12:50:12.787Z,4.40
2018-08-28T12:52:44.433Z,4.30
2018-08-28T12:55:16.252Z,4.13
2018-08-28T12:57:45.993Z,5.33
2018-08-28T13:00:24.327Z,4.50
2018-08-28T13:03:02.700Z,4.17
2018-08-28T13:05:32.632Z,4.00
2018-08-28T13:08:05.834Z,4.57
2018-08-28T13:10:36.844Z,4.43
2018-08-28T13:13:20.543Z,4.10
2018-08-28T13:15:59.236Z,4.13
2018-08-28T13:18:44.566Z,4.73
2018-08-28T13:21:27.693Z,4.10
2018-08-28T13:34:03.658Z,4.43
2018-08-28T13:36:34.267Z,4.10
2018-08-28T13:39:04.572Z,4.60
2018-08-28T13:41:34.228Z,4.50
2018-08-28T13:44:04.112Z,4.30
2018-08-28T13:46:33.798Z,4.87
2018-08-28T13:49:03.555Z,5.03
2018-08-28T13:51:33.095Z,4.60
2018-08-28T13:54:03.010Z,4.33
2018-08-28T13:56:32.558Z,4.40
2018-08-28T13:59:02.397Z,4.87
2018-08-28T14:01:31.964Z,4.40
2018-08-28T14:04:01.474Z,4.70
2018-08-28T14:06:31.060Z,4.57
2018-08-28T14:09:00.712Z,4.73
2018-08-28T14:11:30.384Z,4.70
2018-08-28T14:14:00.751Z,4.67
2018-08-28T14:16:30.497Z,3.97
2018-08-28T14:19:00.388Z,3.70
2018-08-28T14:21:29.970Z,5.13
2018-08-28T14:23:59.553Z,4.23
2018-08-28T14:26:29.097Z,4.27
2018-08-28T14:28:59.014Z,4.70
2018-08-28T14:31:28.575Z,5.20
2018-08-28T14:33:58.351Z,4.33
2018-08-28T14:36:27.938Z,4.40
2018-08-28T14:38:57.970Z,4.40
2018-08-28T14:41:27.494Z,4.27
2018-08-28T14:43:57.290Z,4.50
2018-08-28T14:46:27.057Z,5.33
2018-08-28T14:48:56.782Z,4.40
2018-08-28T14:51:26.336Z,5.23
2018-08-28T14:53:56.317Z,5.03
2018-08-28T14:56:25.934Z,3.73
2018-08-28T14:58:55.528Z,4.67
2018-08-28T15:01:30.599Z,4.73
2018-08-28T15:04:00.325Z,5.20
2018-08-28T15:06:30.184Z,4.53
2018-08-28T15:08:59.742Z,4.40
2018-08-28T15:11:29.308Z,4.60
2018-08-28T15:13:58.819Z,4.43
2018-08-28T15:16:28.572Z,4.70
2018-08-28T15:18:58.232Z,4.83
2018-08-28T15:21:27.808Z,4.33
2018-08-28T15:23:57.465Z,4.17
2018-08-28T15:26:27.241Z,4.27
2018-08-28T15:28:56.827Z,4.17
2018-08-28T15:31:26.381Z,4.10
2018-08-28T15:33:55.878Z,3.40
2018-08-28T15:36:25.451Z,4.20
2018-08-28T15:38:54.949Z,4.50
2018-08-28T15:41:24.562Z,3.93
2018-08-28T15:43:54.115Z,4.80
2018-08-28T15:46:23.662Z,4.93
2018-08-28T15:48:53.231Z,3.97
2018-08-28T15:51:22.975Z,4.13
2018-08-28T15:53:52.564Z,4.03
2018-08-28T15:56:22.303Z,4.37
2018-08-28T15:58:51.861Z,4.73
2018-08-28T16:01:22.111Z,4.53
2018-08-28T16:03:51.629Z,3.80
2018-08-28T16:06:21.168Z,4.17
2018-08-28T16:08:50.845Z,4.20
2018-08-28T16:11:20.489Z,6.07
2018-08-28T16:13:50.045Z,5.23
2018-08-28T16:16:19.609Z,4.30
2018-08-28T16:18:49.368Z,4.77
2018-08-28T16:21:19.015Z,4.10
2018-08-28T16:23:49.652Z,4.17
2018-08-28T16:26:19.278Z,4.90
2018-08-28T16:28:48.825Z,4.03
2018-08-28T16:31:18.392Z,3.40
2018-08-28T16:33:48.026Z,4.23
2018-08-28T16:36:17.754Z,4.13
2018-08-28T16:38:47.300Z,4.40
2018-08-28T16:41:17.078Z,5.67
2018-08-28T16:43:46.469Z,6.03
2018-08-28T16:46:16.171Z,6.77
2018-08-28T16:48:45.691Z,5.40
2018-08-28T16:51:15.241Z,6.70
2018-08-28T16:53:44.818Z,6.93
2018-08-28T16:56:14.778Z,4.50
2018-08-28T16:58:44.389Z,4.23
2018-08-28T17:01:14.001Z,4.67
2018-08-28T17:03:45.367Z,4.13
2018-08-28T17:06:14.869Z,5.33
2018-08-28T17:08:44.452Z,4.27
2018-08-28T17:11:15.159Z,3.77
2018-08-28T17:13:44.742Z,7.17
2018-08-28T17:16:14.278Z,5.70
2018-08-28T17:18:43.792Z,5.50
2018-08-28T17:21:13.324Z,5.57
2018-08-28T17:23:42.890Z,4.23
2018-08-28T17:26:12.485Z,4.17
2018-08-28T17:28:41.953Z,3.50
2018-08-28T17:31:11.481Z,3.63
2018-08-28T17:33:41.011Z,4.03
2018-08-28T17:36:10.542Z,4.07
2018-08-28T17:38:40.434Z,4.17
2018-08-28T17:41:10.040Z,3.50
2018-08-28T17:43:39.651Z,4.20
2018-08-28T17:46:09.182Z,3.97
2018-08-28T17:48:39.115Z,3.73
2018-08-28T17:51:08.886Z,5.60
2018-08-28T17:53:38.426Z,4.20
2018-08-28T17:56:08.023Z,4.30
2018-08-28T17:58:37.752Z,4.20
2018-08-28T18:01:07.413Z,3.53
2018-08-28T18:03:38.035Z,4.97
2018-08-28T18:06:07.933Z,4.20
2018-08-28T18:08:37.518Z,4.23
2018-08-28T18:13:51.241Z,3.83
2018-08-28T18:16:20.809Z,3.90
2018-08-28T18:18:50.463Z,5.03
2018-08-28T18:21:20.053Z,3.90
2018-08-28T18:23:49.668Z,4.07
2018-08-28T18:26:19.184Z,3.87
2018-08-28T18:28:48.755Z,4.10
2018-08-28T18:31:18.411Z,4.13
2018-08-28T18:33:48.017Z,4.30
2018-08-28T18:36:17.567Z,4.53
2018-08-28T18:38:47.093Z,3.87
2018-08-28T18:41:16.676Z,4.30
2018-08-28T18:43:46.365Z,4.60
2018-08-28T18:46:15.913Z,4.73
2018-08-28T18:48:45.566Z,4.30
2018-08-28T18:51:15.165Z,4.33
2018-08-28T18:53:44.703Z,4.50
2018-08-28T18:56:14.287Z,3.63
2018-08-28T18:58:43.999Z,4.10
2018-08-28T19:01:13.560Z,3.77
2018-08-28T19:03:43.252Z,4.80
2018-08-28T19:06:12.819Z,3.73
2018-08-28T19:08:42.410Z,4.47
2018-08-28T19:11:22.253Z,4.53
2018-08-28T19:13:51.925Z,4.17
2018-08-28T19:16:21.496Z,4.20
2018-08-28T19:18:52.309Z,4.20
2018-08-28T19:21:22.192Z,4.10
2018-08-28T19:23:54.619Z,4.30
2018-08-28T19:26:27.343Z,4.50
2018-08-28T19:28:59.176Z,4.63
2018-08-28T19:31:28.766Z,4.13
2018-08-28T19:34:00.274Z,5.47
2018-08-28T19:36:33.206Z,5.20
2018-08-28T19:39:10.936Z,4.47
2018-08-28T19:41:46.178Z,4.57
2018-08-28T19:44:19.239Z,5.03
2018-08-28T19:46:52.490Z,3.83
2018-08-28T19:49:25.440Z,4.20
2018-08-28T19:51:58.529Z,5.10
2018-08-28T19:54:31.267Z,4.97
2018-08-28T19:57:03.958Z,4.77
2018-08-28T19:59:41.987Z,4.90
2018-08-28T20:02:13.851Z,5.20
2018-08-28T20:04:44.676Z,4.90
2018-08-28T20:07:16.370Z,4.90
2018-08-28T20:09:48.111Z,5.23
2018-08-28T20:12:19.917Z,5.63
2018-08-28T20:14:53.105Z,4.73
2018-08-28T20:17:25.237Z,4.77
2018-08-28T20:19:57.283Z,5.37
2018-08-28T20:22:29.999Z,4.13
2018-08-28T20:25:02.469Z,4.87
2018-08-28T20:27:35.919Z,5.17
2018-08-28T20:30:09.730Z,5.83
2018-08-28T20:32:42.620Z,5.60
2018-08-28T20:35:15.521Z,5.33
2018-08-28T20:37:48.790Z,5.53
2018-08-28T20:40:21.948Z,5.67
2018-08-28T20:42:54.242Z,5.37
2018-08-28T20:45:28.251Z,5.87
2018-08-28T20:48:01.546Z,5.20
2018-08-28T20:50:34.849Z,5.97
2018-08-28T20:53:08.661Z,5.47
2018-08-28T20:55:42.196Z,5.53
2018-08-28T20:58:12.017Z,5.80
2018-08-28T21:00:42.634Z,5.47
2018-08-28T21:03:16.275Z,5.87
2018-08-28T21:05:51.338Z,6.47
2018-08-28T21:08:24.462Z,5.30
2018-08-28T21:10:57.539Z,6.23
2018-08-28T21:13:33.676Z,6.37
2018-08-28T21:16:05.058Z,5.90
2018-08-28T21:18:34.791Z,6.23
2018-08-28T21:21:07.573Z,5.90
2018-08-28T21:23:40.672Z,5.63
2018-08-28T21:26:13.344Z,6.67
2018-08-28T21:28:46.123Z,5.13
2018-08-28T21:31:17.922Z,6.53
2018-08-28T21:33:50.757Z,6.50
2018-08-28T21:36:23.747Z,6.33
2018-08-28T21:38:55.259Z,6.63
2018-08-28T21:41:25.231Z,6.93
2018-08-28T21:43:58.807Z,5.97
2018-08-28T21:46:31.203Z,6.57
2018-08-28T21:49:04.224Z,6.23
2018-08-28T21:51:36.834Z,6.23
2018-08-28T21:54:09.868Z,7.60
2018-08-28T21:56:39.486Z,6.20
2018-08-28T21:59:09.021Z,7.10
2018-08-28T22:01:38.552Z,6.80
2018-08-28T22:04:08.159Z,6.60
2018-08-28T22:06:43.104Z,6.13
2018-08-28T22:09:12.810Z,6.17
2018-08-28T22:11:42.429Z,6.83
2018-08-28T22:14:11.989Z,7.00
2018-08-28T22:16:41.851Z,6.37
2018-08-28T22:19:11.374Z,7.27
2018-08-28T22:21:41.008Z,6.03
2018-08-28T22:24:10.587Z,6.37
2018-08-28T22:26:40.172Z,7.57
2018-08-28T22:29:09.753Z,5.90
2018-08-28T22:31:39.274Z,6.27
2018-08-28T22:34:09.124Z,6.57
2018-08-28T22:36:38.670Z,7.17
2018-08-28T22:39:08.255Z,6.83
2018-08-28T22:41:37.853Z,6.00
2018-08-28T22:44:07.391Z,7.27
2018-08-28T22:46:37.315Z,6.67
2018-08-28T22:49:07.200Z,6.47
2018-08-28T22:51:36.733Z,7.10
2018-08-28T22:54:06.307Z,7.43
2018-08-28T22:56:36.091Z,6.37
2018-08-28T22:59:05.977Z,7.13
2018-08-28T23:01:35.726Z,7.77
2018-08-28T23:04:05.647Z,6.70
2018-08-28T23:06:35.145Z,6.77
2018-08-28T23:09:06.021Z,7.47
2018-08-28T23:11:35.648Z,7.80
2018-08-28T23:14:05.536Z,7.13
2018-08-28T23:16:35.237Z,6.77
2018-08-28T23:19:04.811Z,6.77
2018-08-28T23:21:36.290Z,6.80
2018-08-28T23:24:05.963Z,6.43
2018-08-28T23:26:35.481Z,7.17
2018-08-28T23:29:05.195Z,7.43
2018-08-28T23:31:34.826Z,7.10
2018-08-28T23:34:04.357Z,7.47
2018-08-28T23:36:33.882Z,7.50
2018-08-28T23:39:03.738Z,6.80
2018-08-28T23:41:33.251Z,6.90
2018-08-28T23:44:02.782Z,6.80
2018-08-28T23:46:32.327Z,7.43
2018-08-28T23:49:01.902Z,7.23
2018-08-28T23:51:31.454Z,7.30
2018-08-28T23:54:01.017Z,7.00
2018-08-28T23:56:30.591Z,7.13
2018-08-28T23:59:00.137Z,7.57
